Flight Track Log - Related Links

Times and Time Zones

All times are in EDT time to prevent confusion due to time zone crossing. See the UAL4788 flight status page for this flight to view local times or setup timezone preferences in your user account.

Time Position Orientation Groundspeed Altitude Reporting Facility
EDT Latitude Longitude Course Direction KTS MPH feet Rate Location/Type
Wed 06:04:25 AM 42.9292 -83.6825 100° East 192 221 3,000  Level Cleveland Center
Wed 06:05:13 AM 42.9267 -83.6200 93° East 208 239 4,300 942 Climbing Cleveland Center
Wed 06:06:26 AM 42.9169 -83.5147 97° East 255 293 4,900 237 Climbing Cleveland Center
Wed 06:07:45 AM 42.8800 -83.4053 115° Southeast 267 307 4,900  Level Cleveland Center
Wed 06:08:45 AM 42.8211 -83.3375 140° Southeast 272 313 4,900  Level Cleveland Center
Wed 06:09:00 AM 42.6882 -83.3975 100° East  Level Estimated
Wed 06:09:40 AM 42.7706 -83.2758 138° Southeast 266 306 4,900  Level Cleveland Center
Wed 06:10:41 AM 42.7158 -83.2114 139° Southeast 240 276 5,600 857 Climbing Cleveland Center
Wed 06:12:00 AM 42.6589 -83.1439 139° Southeast 211 243 6,900 645 Climbing Cleveland Center
Wed 06:12:42 AM 42.6264 -83.1061 139° Southeast 227 261 6,900  Level Cleveland Center
Wed 06:13:43 AM 42.5736 -83.0419 138° Southeast 249 287 6,900  Level Cleveland Center
Wed 06:14:56 AM 42.5106 -82.9661 138° Southeast 255 293 6,900  Level Cleveland Center
Wed 06:15:51 AM 42.4594 -82.9106 141° Southeast 254 292 6,900 55 Level Cleveland Center
Wed 06:16:45 AM 42.4106 -82.8556 140° Southeast 255 293 7,000 53 Climbing Cleveland Center
Wed 06:17:45 AM 42.3639 -82.7947 136° Southeast 267 307 7,000 -50 Level Cleveland Center
Wed 06:18:45 AM 42.3108 -82.7339 140° Southeast 267 307 6,900 -50 Descending Cleveland Center
Wed 06:19:45 AM 42.2558 -82.6703 139° Southeast 261 300 6,900  Level Cleveland Center
Wed 06:20:45 AM 42.2025 -82.6097 140° Southeast 254 292 6,900  Level Cleveland Center
Wed 06:21:18 AM 42.1678 -82.5694 139° Southeast 252 290 6,900  Level Cleveland Center
Wed 06:21:45 AM 42.1494 -82.5492 141° Southeast 254 292 6,900  Level Cleveland Center
Wed 06:22:45 AM 42.0964 -82.4861 139° Southeast 254 292 6,900  Level Cleveland Center
Wed 06:23:45 AM 42.0472 -82.4231 136° Southeast 254 292 6,900  Level Cleveland Center
Wed 06:24:45 AM 41.9961 -82.3600 137° Southeast 254 292 6,900  Level Cleveland Center
Wed 06:25:45 AM 41.9472 -82.3000 138° Southeast 254 292 6,900 50 Level Cleveland Center
Wed 06:26:45 AM 41.8958 -82.2372 138° Southeast 254 292 7,000 50 Climbing Cleveland Center
Wed 06:27:45 AM 41.8425 -82.1747 139° Southeast 254 292 7,000  Level Cleveland Center
Wed 06:28:45 AM 41.7933 -82.1094 135° Southeast 254 292 7,000 -250 Level Cleveland Center
Wed 06:29:45 AM 41.7400 -82.0442 138° Southeast 254 292 6,500 -850 Descending Cleveland Center
Wed 06:30:45 AM 41.6908 -81.9817 136° Southeast 254 292 5,300 -1,209 Descending Cleveland Center
Wed 06:31:54 AM 41.6272 -81.9053 138° Southeast 253 291 3,900 -1,108 Descending Cleveland Center
Wed 06:32:55 AM 41.5694 -81.8514 145° Southeast 243 280 2,900 -469 Descending Cleveland Center
Wed 06:34:02 AM 41.5011 -81.8086 155° Southeast 231 266 2,900 -425 Level Cleveland Center
Wed 06:35:02 AM 41.4469 -81.7964 170° South 170 196 2,000 -992 Descending Cleveland Center
Wed 06:36:03 AM 41.4217 -81.8319 227° Southwest 130 150 900 -1,082 Descending Cleveland Center
Wed 06:38:00 AM 41.4000 -81.8500 143° Southeast  Level FlightAware Approximate

Login

Don't have an account? Register now (free) for customized features, flight alerts, and more!